Time;durP1;ratioP1;P1;durP2;ratioP2;P2;SDS_P1;SDS_P2;PMS_P1;PMS_P2;Temp;Humidity;BMP_temperature;BMP_pressure;BME280_temperature;BME280_humidity;BME280_pressure;Samples;Min_cycle;Max_cycle;Signal;HPM_P1;HPM_P2
2021/05/21 00:01:17;;;;;;;4.45;1.75;;;12.80;78.20;;;;;;5005718;28;20488;-79
2021/05/21 00:03:43;;;;;;;4.75;1.48;;;12.80;78.20;;;;;;5033126;28;20920;-83
2021/05/21 00:06:10;;;;;;;3.70;1.55;;;12.80;78.50;;;;;;5016086;28;20551;-80
2021/05/21 00:08:36;;;;;;;3.22;1.60;;;12.80;78.80;;;;;;5016407;28;20045;-82
2021/05/21 00:11:02;;;;;;;4.05;1.52;;;12.70;78.90;;;;;;5027915;28;20056;-83
2021/05/21 00:13:28;;;;;;;2.78;1.40;;;12.70;78.70;;;;;;5000933;28;20158;-82
2021/05/21 00:15:54;;;;;;;2.75;1.50;;;12.70;78.90;;;;;;5013110;28;20128;-82
2021/05/21 00:18:20;;;;;;;2.53;1.60;;;12.70;79.10;;;;;;5011182;28;20124;-79
2021/05/21 00:20:49;;;;;;;5.97;1.40;;;12.70;79.20;;;;;;5011994;28;20073;-81
2021/05/21 00:23:16;;;;;;;2.72;1.40;;;12.70;79.30;;;;;;5013805;28;20146;-81
2021/05/21 00:25:44;;;;;;;2.50;1.20;;;12.60;79.40;;;;;;5027463;28;20041;-82
2021/05/21 00:28:10;;;;;;;4.38;1.40;;;12.60;79.50;;;;;;5007991;28;20037;-79
2021/05/21 00:30:36;;;;;;;3.00;1.23;;;12.70;79.10;;;;;;5008384;28;20220;-81
2021/05/21 00:33:05;;;;;;;2.72;1.17;;;12.70;79.40;;;;;;5009097;28;20044;-81
2021/05/21 00:35:31;;;;;;;4.45;1.45;;;12.60;79.60;;;;;;5001345;28;20037;-81
2021/05/21 00:38:00;;;;;;;2.75;1.70;;;12.70;79.50;;;;;;5025560;28;20485;-81
2021/05/21 00:40:26;;;;;;;4.97;1.50;;;12.80;79.00;;;;;;5003733;28;20037;-81
2021/05/21 00:42:52;;;;;;;3.20;1.35;;;12.80;78.80;;;;;;5011043;28;20692;-80
2021/05/21 00:45:18;;;;;;;4.97;1.50;;;12.90;78.80;;;;;;5020013;28;20045;-79
2021/05/21 00:47:44;;;;;;;3.15;1.30;;;12.80;79.20;;;;;;4997480;28;20480;-80
2021/05/21 00:50:10;;;;;;;3.63;1.67;;;12.90;79.10;;;;;;5010832;28;20077;-81
2021/05/21 00:52:41;;;;;;;6.03;1.40;;;12.90;78.80;;;;;;5029775;28;20072;-83
2021/05/21 00:55:08;;;;;;;3.08;1.23;;;12.90;79.00;;;;;;5032859;28;20064;-79
2021/05/21 00:57:35;;;;;;;4.05;1.25;;;12.90;79.20;;;;;;5031027;28;20515;-81
2021/05/21 01:00:03;;;;;;;5.53;1.40;;;13.00;79.20;;;;;;5031722;28;20116;-79
2021/05/21 01:02:29;;;;;;;5.28;1.55;;;13.00;79.50;;;;;;5013284;28;20125;-80
2021/05/21 01:04:55;;;;;;;2.58;1.30;;;13.00;79.40;;;;;;5032096;28;20635;-79
2021/05/21 01:07:21;;;;;;;3.70;1.30;;;13.00;79.30;;;;;;5016757;28;20048;-80
2021/05/21 01:09:47;;;;;;;3.30;1.33;;;13.00;79.20;;;;;;5030893;28;20124;-79
2021/05/21 01:12:13;;;;;;;3.63;1.40;;;13.10;79.30;;;;;;5035954;28;20124;-79
2021/05/21 01:14:54;;;;;;;5.13;1.77;;;13.10;79.50;;;;;;5041961;28;20148;-78
2021/05/21 01:17:22;;;;;;;2.80;1.17;;;13.20;78.70;;;;;;5011901;28;20132;-80
2021/05/21 01:19:48;;;;;;;4.78;1.30;;;13.20;79.00;;;;;;5025945;28;20120;-79
2021/05/21 01:22:15;;;;;;;7.88;1.40;;;13.20;78.90;;;;;;5022739;28;20044;-80
2021/05/21 01:24:42;;;;;;;4.22;1.30;;;13.30;78.90;;;;;;5022160;28;20045;-79
2021/05/21 01:27:10;;;;;;;3.17;1.17;;;13.20;79.40;;;;;;5029052;28;20061;-81
2021/05/21 01:29:36;;;;;;;4.38;1.55;;;13.30;79.00;;;;;;4990229;28;20033;-78
2021/05/21 01:32:08;;;;;;;4.93;1.60;;;13.30;79.40;;;;;;5022668;28;20100;-80
2021/05/21 01:34:35;;;;;;;3.47;1.23;;;13.20;79.30;;;;;;5027501;28;20425;-81
2021/05/21 01:37:01;;;;;;;2.30;1.25;;;13.20;79.50;;;;;;5007164;28;20041;-78
2021/05/21 01:39:34;;;;;;;5.63;1.42;;;13.30;79.40;;;;;;5007477;28;20048;-78
2021/05/21 01:42:01;;;;;;;2.97;1.20;;;13.30;79.50;;;;;;5032040;28;20433;-80
2021/05/21 01:44:30;;;;;;;2.95;1.13;;;13.40;78.90;;;;;;5027639;28;20686;-80
2021/05/21 01:46:55;;;;;;;3.55;1.30;;;13.40;79.40;;;;;;5008942;28;20088;-78
2021/05/21 01:49:21;;;;;;;3.72;1.58;;;13.30;79.50;;;;;;5002424;28;20626;-79
2021/05/21 01:51:52;;;;;;;5.05;1.10;;;13.40;79.70;;;;;;5031059;28;20136;-79
2021/05/21 01:54:18;;;;;;;2.75;1.45;;;13.30;79.70;;;;;;5034805;28;20354;-79
2021/05/21 01:56:47;;;;;;;3.35;1.30;;;13.40;79.90;;;;;;5035200;28;20049;-81
2021/05/21 01:59:14;;;;;;;7.85;1.45;;;13.30;80.00;;;;;;5017099;28;20519;-80
2021/05/21 02:01:40;;;;;;;4.95;1.40;;;13.30;80.00;;;;;;4989063;28;20061;-79
2021/05/21 02:04:06;;;;;;;3.15;1.35;;;13.30;79.70;;;;;;4964741;28;20068;-80
2021/05/21 02:06:38;;;;;;;4.00;1.60;;;13.30;80.90;;;;;;5009994;28;20042;-80
2021/05/21 02:09:06;;;;;;;5.00;1.40;;;13.30;81.90;;;;;;5011283;28;20037;-78
2021/05/21 02:11:31;;;;;;;7.47;1.83;;;13.20;82.90;;;;;;5041337;28;20116;-81
2021/05/21 02:14:01;;;;;;;3.10;1.40;;;13.10;83.30;;;;;;5029710;28;20163;-80
2021/05/21 02:16:27;;;;;;;3.13;1.52;;;13.10;83.60;;;;;;5029446;28;20451;-79
2021/05/21 02:18:53;;;;;;;7.93;1.50;;;13.00;83.90;;;;;;4996361;28;20037;-80
2021/05/21 02:21:31;;;;;;;6.22;1.77;;;13.00;84.40;;;;;;5010612;28;20053;-79
2021/05/21 02:24:00;;;;;;;5.78;1.73;;;12.90;85.10;;;;;;5001207;28;20099;-78
2021/05/21 02:26:26;;;;;;;5.05;2.05;;;12.90;86.00;;;;;;5016900;28;20077;-80
2021/05/21 02:28:52;;;;;;;6.60;1.88;;;12.80;86.80;;;;;;5032017;28;20038;-80
2021/05/21 02:31:19;;;;;;;6.32;1.85;;;12.80;87.50;;;;;;5040478;28;20514;-82
2021/05/21 02:33:45;;;;;;;11.95;2.50;;;12.70;88.00;;;;;;5009621;28;20146;-79
2021/05/21 02:36:14;;;;;;;8.48;2.58;;;12.60;88.30;;;;;;5005137;28;20504;-84
2021/05/21 02:38:40;;;;;;;10.70;2.80;;;12.60;88.50;;;;;;5009788;28;20041;-80
2021/05/21 02:41:09;;;;;;;12.95;2.88;;;12.60;88.90;;;;;;5026752;28;20042;-78
2021/05/21 02:43:35;;;;;;;17.95;3.08;;;12.50;89.60;;;;;;5022006;28;20159;-80
2021/05/21 02:46:01;;;;;;;14.43;3.00;;;12.50;89.50;;;;;;5009230;28;20120;-83
2021/05/21 02:48:30;;;;;;;18.50;2.92;;;12.40;89.90;;;;;;5028161;28;20040;-80
2021/05/21 02:50:56;;;;;;;16.95;2.45;;;12.40;90.00;;;;;;5014366;28;20147;-84
2021/05/21 02:53:22;;;;;;;16.08;2.72;;;12.30;90.20;;;;;;5002377;28;20490;-82
2021/05/21 02:55:48;;;;;;;14.85;3.15;;;12.30;90.30;;;;;;4957964;28;20496;-82
2021/05/21 02:58:15;;;;;;;17.58;2.65;;;12.20;90.30;;;;;;4989621;28;20079;-81
2021/05/21 03:00:41;;;;;;;17.20;3.10;;;12.20;90.50;;;;;;5005269;28;20041;-81
2021/05/21 03:03:10;;;;;;;13.40;2.22;;;12.10;90.60;;;;;;4979070;28;20092;-83
2021/05/21 03:05:35;;;;;;;13.80;3.30;;;12.10;90.70;;;;;;4984073;28;20516;-81
2021/05/21 03:08:02;;;;;;;16.35;3.22;;;12.10;90.80;;;;;;4986703;28;20034;-80
2021/05/21 03:10:29;;;;;;;23.20;3.40;;;12.10;91.40;;;;;;4985627;28;20105;-79
2021/05/21 03:12:55;;;;;;;18.63;4.03;;;11.90;91.60;;;;;;4971653;28;20099;-80
2021/05/21 03:15:22;;;;;;;15.57;3.20;;;11.70;91.80;;;;;;5010899;28;20044;-78
2021/05/21 03:17:49;;;;;;;15.30;2.88;;;11.60;92.30;;;;;;5005459;28;20150;-79
2021/05/21 03:20:15;;;;;;;17.83;2.75;;;11.40;92.40;;;;;;4977659;28;20047;-79
2021/05/21 03:22:41;;;;;;;13.07;2.53;;;11.30;92.80;;;;;;5015123;28;20038;-79
2021/05/21 03:25:08;;;;;;;15.02;2.65;;;11.20;92.80;;;;;;4985114;28;20162;-79
2021/05/21 03:27:34;;;;;;;14.00;2.92;;;11.10;93.00;;;;;;5003529;28;20057;-80
2021/05/21 03:30:02;;;;;;;16.35;3.10;;;11.00;92.90;;;;;;5006720;28;20089;-79
2021/05/21 03:32:28;;;;;;;12.02;2.80;;;10.90;92.90;;;;;;4990629;28;20096;-79
2021/05/21 03:34:54;;;;;;;14.18;2.45;;;10.80;92.90;;;;;;4964245;28;20240;-79
2021/05/21 03:37:20;;;;;;;13.10;2.92;;;10.70;92.90;;;;;;5004218;28;20132;-79
2021/05/21 03:39:46;;;;;;;14.13;2.50;;;10.70;93.10;;;;;;5001881;28;20149;-79
2021/05/21 03:42:13;;;;;;;13.68;2.35;;;10.60;93.30;;;;;;4981719;28;20049;-81
2021/05/21 03:44:39;;;;;;;16.70;2.90;;;10.60;93.40;;;;;;4997590;28;20050;-79
2021/05/21 03:47:05;;;;;;;13.35;3.33;;;10.60;93.50;;;;;;5017357;28;20030;-79
2021/05/21 03:49:32;;;;;;;13.93;2.47;;;10.60;93.60;;;;;;4997579;28;20253;-78
2021/05/21 03:52:01;;;;;;;13.65;2.95;;;10.60;93.70;;;;;;4972787;28;20514;-79
2021/05/21 03:54:30;;;;;;;17.88;2.47;;;10.60;93.70;;;;;;5003917;28;20041;-80
2021/05/21 03:56:56;;;;;;;19.98;3.42;;;10.60;93.70;;;;;;4993584;28;20058;-77
2021/05/21 03:59:26;;;;;;;18.38;4.22;;;10.60;93.70;;;;;;4967413;28;20034;-78
2021/05/21 04:01:52;;;;;;;17.73;4.85;;;10.60;93.60;;;;;;4965270;28;20615;-79
2021/05/21 04:04:18;;;;;;;16.95;3.30;;;10.60;93.60;;;;;;5010187;28;20420;-76
2021/05/21 04:06:44;;;;;;;16.08;3.45;;;10.60;93.40;;;;;;5020317;28;20104;-78
2021/05/21 04:09:10;;;;;;;16.00;3.20;;;10.60;93.30;;;;;;4983586;28;20111;-79
2021/05/21 04:11:36;;;;;;;19.83;3.05;;;10.60;93.20;;;;;;4998163;28;20211;-78
2021/05/21 04:14:04;;;;;;;21.27;3.42;;;10.60;93.00;;;;;;4993966;28;20069;-77
2021/05/21 04:16:31;;;;;;;20.75;3.28;;;10.60;92.80;;;;;;5007247;28;20705;-79
2021/05/21 04:19:00;;;;;;;19.25;3.17;;;10.60;92.70;;;;;;4992849;28;20072;-80
2021/05/21 04:21:26;;;;;;;17.73;3.22;;;10.70;92.50;;;;;;4999667;28;20043;-78
2021/05/21 04:23:54;;;;;;;18.70;3.25;;;10.70;92.30;;;;;;4986971;28;20616;-79
2021/05/21 04:26:21;;;;;;;17.15;2.72;;;10.70;92.20;;;;;;5002984;28;20042;-77
2021/05/21 04:28:50;;;;;;;17.38;3.10;;;10.70;92.10;;;;;;4995449;28;20099;-77
2021/05/21 04:31:17;;;;;;;18.67;3.80;;;10.70;92.10;;;;;;4952198;28;20077;-77
2021/05/21 04:33:43;;;;;;;18.25;3.80;;;10.80;92.10;;;;;;4986942;28;20831;-78
2021/05/21 04:36:10;;;;;;;17.60;2.97;;;10.80;92.10;;;;;;4991490;28;20259;-78
2021/05/21 04:38:36;;;;;;;18.35;3.35;;;10.80;92.10;;;;;;5002679;28;20137;-77
2021/05/21 04:41:03;;;;;;;22.83;3.85;;;10.80;92.10;;;;;;4975965;28;20030;-79
2021/05/21 04:43:32;;;;;;;20.08;2.88;;;10.70;92.10;;;;;;4992212;28;20117;-78
2021/05/21 04:46:01;;;;;;;17.55;3.38;;;10.70;92.10;;;;;;5000047;28;20212;-79
2021/05/21 04:48:28;;;;;;;20.70;3.92;;;10.70;92.10;;;;;;4998161;28;20149;-78
2021/05/21 04:50:56;;;;;;;11.85;2.53;;;10.70;92.00;;;;;;5000809;28;20058;-77
2021/05/21 04:53:30;;;;;;;17.05;2.92;;;10.70;92.10;;;;;;4989740;28;20062;-80
2021/05/21 04:56:02;;;;;;;20.55;3.53;;;10.70;92.20;;;;;;4979904;28;20034;-82
2021/05/21 04:58:28;;;;;;;19.35;3.67;;;10.80;92.10;;;;;;4985998;28;20046;-80
2021/05/21 05:00:54;;;;;;;17.88;3.60;;;10.80;92.10;;;;;;4974322;28;20128;-81
2021/05/21 05:03:21;;;;;;;18.42;2.75;;;10.80;92.10;;;;;;4992240;28;20981;-81
2021/05/21 05:05:47;;;;;;;20.25;3.40;;;10.90;92.00;;;;;;4955337;28;20141;-80
2021/05/21 05:08:15;;;;;;;21.67;3.40;;;10.90;91.90;;;;;;4971372;28;20117;-84
2021/05/21 05:10:42;;;;;;;16.67;2.95;;;11.00;92.00;;;;;;5001224;28;20046;-82
2021/05/21 05:13:09;;;;;;;21.08;2.80;;;11.00;92.00;;;;;;5002439;28;20591;-81
2021/05/21 05:15:38;;;;;;;16.15;3.78;;;11.00;92.00;;;;;;4993232;28;20133;-80
2021/05/21 05:18:05;;;;;;;21.05;3.65;;;11.00;92.20;;;;;;4991058;28;20049;-80
2021/05/21 05:20:32;;;;;;;15.48;3.40;;;11.00;92.30;;;;;;4988889;28;20489;-80
2021/05/21 05:22:58;;;;;;;18.73;4.15;;;11.00;92.40;;;;;;5003658;28;20034;-81
2021/05/21 05:25:24;;;;;;;24.63;4.13;;;11.10;92.60;;;;;;4997670;28;20038;-80
2021/05/21 05:27:51;;;;;;;22.08;3.78;;;11.10;92.70;;;;;;4994989;28;20044;-80
2021/05/21 05:30:18;;;;;;;16.08;3.17;;;11.10;92.70;;;;;;5023035;28;20045;-81
2021/05/21 05:32:44;;;;;;;17.23;3.60;;;11.20;92.60;;;;;;4980697;28;20046;-85
2021/05/21 05:35:14;;;;;;;22.63;3.92;;;11.20;92.70;;;;;;4972465;28;20045;-82
2021/05/21 05:37:40;;;;;;;23.63;3.40;;;11.30;92.70;;;;;;5003898;28;20485;-82
2021/05/21 05:40:07;;;;;;;17.33;3.50;;;11.30;92.60;;;;;;4968150;28;20056;-82
2021/05/21 05:42:33;;;;;;;18.13;3.75;;;11.40;92.80;;;;;;4986440;28;20065;-81
2021/05/21 05:44:58;;;;;;;21.67;3.65;;;11.50;92.80;;;;;;4966917;28;20429;-82
2021/05/21 05:47:24;;;;;;;18.60;3.65;;;11.50;92.50;;;;;;4970456;28;20052;-85
2021/05/21 05:49:50;;;;;;;16.50;3.70;;;11.50;92.40;;;;;;4986349;28;20048;-82
2021/05/21 05:52:16;;;;;;;24.73;3.85;;;11.50;92.20;;;;;;4973658;28;20116;-78
2021/05/21 05:54:46;;;;;;;22.98;3.72;;;11.50;92.40;;;;;;4986291;28;20060;-76
2021/05/21 05:57:12;;;;;;;17.40;4.00;;;11.40;92.30;;;;;;4984696;28;20125;-78
2021/05/21 05:59:39;;;;;;;17.30;3.33;;;11.40;92.30;;;;;;4970924;28;20177;-77
2021/05/21 06:02:08;;;;;;;18.42;3.78;;;11.30;92.20;;;;;;4979299;28;20053;-78
2021/05/21 06:04:34;;;;;;;19.90;3.60;;;11.30;92.10;;;;;;4997510;28;20038;-78
2021/05/21 06:07:00;;;;;;;21.05;3.17;;;11.40;91.90;;;;;;5008546;28;20123;-79
2021/05/21 06:09:27;;;;;;;20.00;3.45;;;11.40;92.00;;;;;;4985839;28;20374;-75
2021/05/21 06:11:55;;;;;;;20.52;3.67;;;11.40;92.10;;;;;;5019457;28;20758;-78
2021/05/21 06:14:21;;;;;;;18.58;3.40;;;11.50;92.10;;;;;;4987297;28;20084;-77
2021/05/21 06:16:47;;;;;;;18.80;6.05;;;11.70;91.70;;;;;;5006349;28;20554;-79
2021/05/21 06:19:13;;;;;;;19.50;3.28;;;11.80;91.60;;;;;;4993245;28;20052;-80
2021/05/21 06:21:39;;;;;;;22.25;3.28;;;11.90;91.60;;;;;;4984195;28;20042;-77
2021/05/21 06:24:06;;;;;;;19.90;3.00;;;12.00;91.50;;;;;;4966063;28;20103;-77
2021/05/21 06:26:43;;;;;;;18.65;3.33;;;12.10;91.20;;;;;;4999044;28;20041;-77
2021/05/21 06:29:12;;;;;;;24.55;4.07;;;12.20;91.30;;;;;;4971428;28;20046;-81
2021/05/21 06:31:38;;;;;;;13.05;3.38;;;12.30;90.80;;;;;;4968214;28;20038;-77
2021/05/21 06:34:04;;;;;;;16.48;3.15;;;12.40;91.00;;;;;;4971795;28;20087;-76
2021/05/21 06:36:30;;;;;;;14.63;3.53;;;12.50;90.30;;;;;;4976305;28;20136;-79
2021/05/21 06:38:56;;;;;;;15.38;3.60;;;12.60;89.80;;;;;;4984302;28;20041;-77
2021/05/21 06:41:22;;;;;;;16.23;2.95;;;12.70;88.50;;;;;;4980673;28;20034;-76
2021/05/21 06:43:48;;;;;;;15.95;3.08;;;12.90;87.10;;;;;;5001293;28;20749;-78
2021/05/21 06:46:14;;;;;;;14.35;2.95;;;13.00;86.20;;;;;;5007598;28;20153;-76
2021/05/21 06:48:40;;;;;;;18.77;3.40;;;13.10;85.10;;;;;;4983250;28;20100;-77
2021/05/21 06:51:07;;;;;;;15.80;2.90;;;13.00;85.30;;;;;;4998532;28;20057;-77
2021/05/21 06:53:36;;;;;;;20.95;2.45;;;13.00;86.30;;;;;;4992607;28;20034;-78
2021/05/21 06:56:03;;;;;;;18.60;3.45;;;13.00;84.80;;;;;;4982033;28;20034;-77
2021/05/21 06:58:29;;;;;;;14.27;3.30;;;13.00;83.00;;;;;;5022359;28;20065;-79
2021/05/21 07:00:59;;;;;;;14.20;2.60;;;13.00;84.80;;;;;;4991689;28;21743;-78
2021/05/21 07:03:28;;;;;;;16.42;3.15;;;13.20;84.20;;;;;;5021156;28;20060;-78
2021/05/21 07:05:55;;;;;;;15.05;3.40;;;13.30;83.60;;;;;;5023362;28;20483;-78
2021/05/21 07:08:21;;;;;;;16.65;3.42;;;13.30;84.30;;;;;;4999492;28;20044;-78
2021/05/21 07:10:47;;;;;;;16.60;3.00;;;13.30;83.50;;;;;;5019109;28;20258;-78
2021/05/21 07:13:15;;;;;;;15.10;3.33;;;13.20;83.70;;;;;;4972417;28;20621;-79
2021/05/21 07:15:41;;;;;;;18.40;3.38;;;13.20;82.40;;;;;;4997891;28;20045;-76
2021/05/21 07:18:08;;;;;;;16.77;3.53;;;13.20;82.70;;;;;;4987608;28;20043;-79
2021/05/21 07:20:35;;;;;;;16.25;3.28;;;13.30;83.40;;;;;;4998890;28;20037;-77
2021/05/21 07:23:01;;;;;;;19.73;3.10;;;13.30;83.10;;;;;;4978269;28;20852;-77
2021/05/21 07:25:28;;;;;;;15.32;3.35;;;13.40;83.60;;;;;;5004612;28;20568;-77
2021/05/21 07:27:54;;;;;;;18.67;3.45;;;13.30;82.80;;;;;;4995501;28;20049;-79
2021/05/21 07:30:21;;;;;;;17.58;3.33;;;13.40;81.50;;;;;;4995460;28;20045;-79
2021/05/21 07:32:47;;;;;;;16.30;3.25;;;13.40;80.30;;;;;;5025306;28;20041;-78
2021/05/21 07:35:14;;;;;;;15.05;3.13;;;13.50;79.80;;;;;;4990223;28;20487;-80
2021/05/21 07:37:42;;;;;;;17.23;2.85;;;13.60;79.70;;;;;;5004828;28;20037;-78
2021/05/21 07:40:08;;;;;;;18.27;3.35;;;13.60;80.10;;;;;;5023199;28;20714;-79
2021/05/21 07:42:36;;;;;;;12.90;3.08;;;13.70;80.00;;;;;;5019239;28;20038;-79
2021/05/21 07:45:06;;;;;;;15.18;3.33;;;13.70;78.90;;;;;;5018279;28;20044;-81
2021/05/21 07:47:32;;;;;;;16.58;3.40;;;13.70;78.00;;;;;;4981070;28;20577;-78
2021/05/21 07:50:01;;;;;;;14.70;2.85;;;13.60;77.50;;;;;;4995050;28;20053;-78
2021/05/21 07:52:27;;;;;;;14.63;3.33;;;13.50;79.20;;;;;;4979438;28;20043;-79
2021/05/21 07:54:56;;;;;;;13.32;2.63;;;13.40;80.10;;;;;;4979323;28;20117;-79
2021/05/21 07:57:25;;;;;;;16.00;3.40;;;13.50;77.80;;;;;;4967601;28;20041;-78
2021/05/21 07:59:51;;;;;;;15.90;3.50;;;13.50;77.70;;;;;;4984982;28;20440;-80
2021/05/21 08:02:17;;;;;;;12.77;2.58;;;13.60;76.60;;;;;;4965563;28;20050;-82
2021/05/21 08:04:43;;;;;;;12.45;2.70;;;13.50;75.70;;;;;;4968397;28;20562;-78
2021/05/21 08:07:09;;;;;;;13.93;3.08;;;13.40;76.00;;;;;;4969347;28;20042;-81
2021/05/21 08:09:38;;;;;;;13.27;2.80;;;13.40;75.60;;;;;;4965889;28;20037;-79
2021/05/21 08:12:05;;;;;;;16.38;3.15;;;13.30;76.70;;;;;;4992344;28;20041;-82
2021/05/21 08:14:32;;;;;;;13.43;2.85;;;13.40;78.00;;;;;;4979443;28;20038;-82
2021/05/21 08:17:01;;;;;;;13.52;2.47;;;13.50;75.30;;;;;;4981976;28;20085;-85
2021/05/21 08:19:30;;;;;;;11.93;2.70;;;13.50;75.30;;;;;;4973057;28;20052;-81
2021/05/21 08:21:56;;;;;;;16.65;3.08;;;13.50;75.10;;;;;;4982255;28;20042;-81
2021/05/21 08:24:21;;;;;;;17.00;2.65;;;13.50;75.00;;;;;;4943709;28;20115;-80
2021/05/21 08:26:47;;;;;;;14.80;2.58;;;13.50;76.40;;;;;;4985606;28;20250;-80
2021/05/21 08:29:13;;;;;;;12.93;2.83;;;13.50;76.60;;;;;;4983738;28;20050;-82
2021/05/21 08:31:39;;;;;;;13.85;2.72;;;13.50;74.50;;;;;;4970035;28;20041;-82
2021/05/21 08:34:05;;;;;;;15.02;3.03;;;13.60;75.20;;;;;;4982233;28;20544;-82
2021/05/21 08:36:31;;;;;;;9.70;2.33;;;13.60;74.90;;;;;;4979790;28;20037;-79
2021/05/21 08:38:57;;;;;;;11.23;2.95;;;13.60;73.30;;;;;;4969405;28;20042;-79
2021/05/21 08:41:26;;;;;;;11.15;2.60;;;13.70;72.30;;;;;;4983163;28;20038;-83
2021/05/21 08:43:53;;;;;;;16.10;2.92;;;13.70;73.60;;;;;;4983553;28;20041;-79
2021/05/21 08:46:21;;;;;;;12.68;2.95;;;13.80;72.80;;;;;;5004487;28;20041;-82
2021/05/21 08:48:47;;;;;;;11.77;2.75;;;13.90;73.80;;;;;;4986684;28;20129;-80
2021/05/21 08:51:15;;;;;;;12.60;2.38;;;14.00;73.60;;;;;;5001143;28;20053;-80
2021/05/21 08:53:41;;;;;;;16.48;2.97;;;14.10;73.50;;;;;;5002580;28;20048;-80
2021/05/21 08:56:09;;;;;;;10.77;2.50;;;14.20;72.20;;;;;;4968851;28;20519;-80
2021/05/21 08:58:36;;;;;;;12.50;3.05;;;14.20;70.30;;;;;;4979430;28;20049;-82
2021/05/21 09:01:03;;;;;;;14.77;3.20;;;14.30;69.10;;;;;;4998785;28;20045;-82
2021/05/21 09:03:31;;;;;;;13.55;2.25;;;14.30;69.00;;;;;;4984187;28;20040;-78
2021/05/21 09:06:16;;;;;;;17.23;2.75;;;14.30;69.10;;;;;;4972620;28;20065;-81
2021/05/21 09:08:50;;;;;;;10.52;2.35;;;14.30;69.70;;;;;;5001943;28;20092;-81
2021/05/21 09:11:43;;;;;;;17.33;2.60;;;14.30;69.70;;;;;;4985176;28;20103;-78
2021/05/21 09:14:20;;;;;;;9.90;2.42;;;14.30;68.70;;;;;;5000832;28;20469;-79
2021/05/21 09:16:48;;;;;;;15.00;2.85;;;14.30;71.60;;;;;;5013653;28;20121;-80
2021/05/21 09:19:18;;;;;;;15.52;3.25;;;14.30;70.00;;;;;;4982412;28;20088;-79
2021/05/21 09:22:08;;;;;;;10.55;1.92;;;14.40;70.10;;;;;;5003297;28;20044;-79
2021/05/21 09:24:34;;;;;;;14.38;3.20;;;14.40;70.70;;;;;;4977653;28;20053;-82
2021/05/21 09:27:01;;;;;;;14.25;2.58;;;14.50;70.50;;;;;;4987709;28;20203;-80
2021/05/21 09:29:39;;;;;;;12.05;2.65;;;14.50;69.90;;;;;;4974788;28;20417;-82
2021/05/21 09:32:31;;;;;;;13.02;2.80;;;14.50;69.60;;;;;;4982491;28;20049;-80
2021/05/21 09:35:15;;;;;;;14.80;2.88;;;14.50;70.00;;;;;;4984873;28;20048;-81
2021/05/21 09:37:59;;;;;;;14.95;2.78;;;14.50;70.90;;;;;;4998217;28;20034;-80
2021/05/21 09:40:32;;;;;;;11.73;2.80;;;14.50;70.80;;;;;;4992117;28;20034;-79
2021/05/21 09:43:04;;;;;;;14.73;2.67;;;14.40;72.50;;;;;;4986321;28;20045;-81
2021/05/21 09:45:34;;;;;;;11.82;2.42;;;14.30;72.20;;;;;;4959540;28;20563;-80
2021/05/21 09:48:05;;;;;;;14.25;2.67;;;14.20;73.60;;;;;;4984565;28;20041;-81
2021/05/21 09:50:40;;;;;;;11.88;2.65;;;14.20;72.70;;;;;;4998454;28;20471;-79
2021/05/21 09:53:24;;;;;;;11.50;2.20;;;14.40;75.10;;;;;;4985545;28;20116;-79
2021/05/21 09:56:07;;;;;;;13.40;2.35;;;14.70;72.60;;;;;;4994937;28;20292;-79
2021/05/21 09:58:35;;;;;;;12.73;2.65;;;14.80;71.50;;;;;;4969623;28;20040;-78
2021/05/21 10:01:11;;;;;;;8.55;2.13;;;14.50;73.30;;;;;;5000332;28;20130;-76
2021/05/21 10:03:39;;;;;;;13.65;2.65;;;14.20;76.90;;;;;;5001071;28;20104;-78
2021/05/21 10:06:06;;;;;;;11.35;2.22;;;13.90;80.00;;;;;;4985054;28;20033;-74
2021/05/21 10:08:32;;;;;;;8.25;2.20;;;13.80;81.60;;;;;;4996581;28;20041;-77
2021/05/21 10:10:59;;;;;;;13.10;2.60;;;13.70;81.10;;;;;;5001854;28;20048;-76
2021/05/21 10:13:25;;;;;;;12.40;2.40;;;13.50;82.10;;;;;;5001807;28;20239;-76
2021/05/21 10:15:53;;;;;;;16.42;2.90;;;13.40;83.20;;;;;;4965733;28;20117;-75
2021/05/21 10:18:19;;;;;;;12.90;3.40;;;13.20;83.00;;;;;;4982831;28;20065;-75
2021/05/21 10:20:46;;;;;;;14.23;2.90;;;13.00;84.30;;;;;;4980510;28;20042;-75
2021/05/21 10:23:25;;;;;;;10.23;2.15;;;12.90;85.80;;;;;;5013156;28;20067;-74
2021/05/21 10:25:55;;;;;;;6.43;1.70;;;12.80;83.70;;;;;;4981352;28;20045;-74
2021/05/21 10:28:33;;;;;;;7.50;1.57;;;12.70;83.00;;;;;;5001620;28;20393;-76
2021/05/21 10:31:01;;;;;;;11.55;1.73;;;12.60;83.10;;;;;;5001410;28;20060;-75
2021/05/21 10:33:36;;;;;;;7.07;1.33;;;12.60;83.30;;;;;;5004664;28;20053;-75
2021/05/21 10:36:31;;;;;;;6.22;1.20;;;12.60;83.60;;;;;;5002897;28;20107;-76
2021/05/21 10:39:16;;;;;;;8.00;1.75;;;12.70;82.50;;;;;;5001857;28;20038;-75
2021/05/21 10:41:57;;;;;;;7.32;1.60;;;12.80;82.10;;;;;;5002395;28;20064;-75
2021/05/21 10:44:28;;;;;;;9.60;2.15;;;13.00;82.20;;;;;;4995163;28;20873;-76
2021/05/21 10:47:16;;;;;;;7.57;2.00;;;13.20;83.20;;;;;;5006545;28;20429;-76
2021/05/21 10:50:02;;;;;;;8.13;1.98;;;13.50;82.30;;;;;;4995422;28;20049;-76
2021/05/21 10:52:51;;;;;;;10.02;2.40;;;13.70;81.30;;;;;;4972536;28;20042;-75
2021/05/21 10:55:19;;;;;;;12.20;2.78;;;13.90;81.30;;;;;;4979813;28;20046;-76
2021/05/21 10:58:01;;;;;;;10.60;2.63;;;13.80;80.80;;;;;;4951880;28;20048;-74
2021/05/21 11:00:30;;;;;;;8.52;2.30;;;13.70;82.70;;;;;;4977265;28;20452;-75
2021/05/21 11:03:02;;;;;;;9.00;2.33;;;13.40;83.30;;;;;;5001698;28;20053;-75
2021/05/21 11:05:35;;;;;;;13.27;4.00;;;13.10;84.60;;;;;;4983712;28;20485;-74
2021/05/21 11:08:07;;;;;;;10.25;2.80;;;12.90;87.10;;;;;;4985816;28;20105;-74
2021/05/21 11:10:33;;;;;;;13.68;2.80;;;13.00;88.10;;;;;;4983171;28;20116;-74
2021/05/21 11:13:11;;;;;;;11.50;3.38;;;13.00;88.60;;;;;;4988216;28;20135;-74
2021/05/21 11:15:41;;;;;;;11.13;2.92;;;13.30;88.40;;;;;;4975563;28;20072;-74
2021/05/21 11:18:16;;;;;;;8.20;3.03;;;13.50;87.60;;;;;;5005534;28;20038;-74
2021/05/21 11:21:08;;;;;;;10.77;3.33;;;13.70;87.20;;;;;;4996252;28;20322;-74
2021/05/21 11:23:36;;;;;;;12.40;2.80;;;13.80;86.60;;;;;;5002472;28;20038;-74
2021/05/21 11:26:12;;;;;;;14.27;3.28;;;13.80;86.20;;;;;;5001296;28;20045;-75
2021/05/21 11:28:58;;;;;;;9.40;2.85;;;14.00;84.60;;;;;;4981665;28;20050;-74
2021/05/21 11:31:30;;;;;;;13.75;3.20;;;14.00;83.50;;;;;;4979175;28;20038;-75
2021/05/21 11:33:59;;;;;;;13.57;3.40;;;14.10;82.80;;;;;;4981479;28;20042;-74
2021/05/21 11:36:27;;;;;;;11.60;2.65;;;14.10;80.30;;;;;;4998855;28;20100;-75
2021/05/21 11:38:55;;;;;;;10.65;2.25;;;14.10;74.10;;;;;;4983337;28;20038;-76
2021/05/21 11:41:32;;;;;;;11.27;2.70;;;14.00;75.50;;;;;;4966538;28;20045;-76
2021/05/21 11:44:09;;;;;;;9.57;2.65;;;13.90;75.30;;;;;;4979957;28;20109;-75
2021/05/21 11:46:43;;;;;;;11.73;2.60;;;14.10;74.30;;;;;;4987604;28;20491;-74
2021/05/21 11:49:19;;;;;;;10.90;2.50;;;14.30;74.30;;;;;;5001877;28;20185;-84
2021/05/21 11:51:56;;;;;;;10.85;2.22;;;14.40;74.30;;;;;;4984751;28;20159;-85
2021/05/21 11:54:22;;;;;;;12.75;3.10;;;14.50;74.80;;;;;;4995954;28;20050;-85
2021/05/21 11:56:51;;;;;;;10.05;2.33;;;14.60;73.30;;;;;;4984713;28;20073;-84
2021/05/21 11:59:20;;;;;;;12.07;2.58;;;14.70;75.30;;;;;;4992353;28;20278;-86
2021/05/21 12:01:48;;;;;;;8.77;2.10;;;14.90;74.40;;;;;;4969611;28;20065;-87
2021/05/21 12:04:15;;;;;;;11.73;2.65;;;14.70;73.10;;;;;;4980856;28;20034;-83
2021/05/21 12:06:47;;;;;;;8.48;2.08;;;14.50;77.60;;;;;;4995495;28;20124;-86
2021/05/21 12:09:15;;;;;;;10.07;2.30;;;14.50;77.40;;;;;;4986000;28;20048;-85
2021/05/21 12:11:42;;;;;;;11.57;2.50;;;14.60;77.50;;;;;;4997421;28;20037;-85
2021/05/21 12:14:19;;;;;;;12.05;2.92;;;14.70;75.70;;;;;;4988133;28;20050;-85
2021/05/21 12:16:46;;;;;;;10.48;2.42;;;14.90;75.60;;;;;;4970756;28;20116;-86
2021/05/21 12:19:14;;;;;;;12.57;2.40;;;15.00;76.20;;;;;;5002244;28;20038;-85
2021/05/21 12:21:42;;;;;;;7.97;1.88;;;15.00;74.70;;;;;;4989379;28;20497;-85
2021/05/21 12:24:10;;;;;;;12.88;2.20;;;14.90;73.40;;;;;;4996923;28;20494;-85
2021/05/21 12:26:42;;;;;;;12.40;2.60;;;14.80;73.40;;;;;;4993002;28;20041;-85
2021/05/21 12:29:10;;;;;;;12.15;2.00;;;14.90;75.70;;;;;;4980352;28;20051;-86
2021/05/21 12:31:53;;;;;;;7.60;2.03;;;15.10;74.40;;;;;;4986597;28;20046;-86
2021/05/21 12:34:20;;;;;;;9.48;2.50;;;15.30;70.70;;;;;;4993673;28;20034;-84
2021/05/21 12:36:58;;;;;;;12.52;1.88;;;15.40;66.50;;;;;;5002875;28;20504;-87
2021/05/21 12:39:33;;;;;;;12.25;2.55;;;15.50;65.40;;;;;;5001078;28;20042;-88
2021/05/21 12:42:00;;;;;;;7.45;1.63;;;15.40;66.00;;;;;;4999054;28;20061;-84
2021/05/21 12:44:26;;;;;;;7.30;1.90;;;15.30;66.70;;;;;;4970280;28;20034;-87
2021/05/21 12:46:54;;;;;;;9.65;2.15;;;15.40;70.20;;;;;;4978776;28;20034;-86
2021/05/21 12:49:29;;;;;;;10.65;2.15;;;15.70;68.90;;;;;;5001253;28;20053;-87